^^
Station Historical Data
Daily Summary for May 9, 2017 Units:  Metric    English   Both
« Previous Day
Next Day »
Daily Weekly Monthly Yearly Custom
  High: Low: Average:
Temperature: 29.7 °C 21.1 °C 26.4 °C
Dew Point: 4.4 °C 1.7 °C 2.6 °C
Humidity: 30% 17% 22%
Wind Speed: 16.3km/h 0km/h 2.1km/h
Wind Gust: 17.7km/h - -
Wind- - West
Pressure: 1016.1 hPa 1012.4 hPa -
Precipitation: 0 mm    
Historical Graphs
 
 
Tabular Data for May 9, 2017
Time Temperature Dew Point Pressure Wind Wind Speed Wind Gust Humidity Rainfall Rate (Hourly) solar Conditions
10:09 23.4 °C 4.4 °C 1016.1 hPa Calm     29% 0 mm 585.0 W/m2
11:05 25.7 °C 3 °C 1015.1 hPa Calm     23% 0 mm 654.0 W/m2
11:20 26.1 °C 3.3 °C 1015.1 hPa Calm     23% 0 mm 664.0 W/m2
11:26 26.2 °C 3.4 °C 1014.8 hPa Calm     23% 0 mm 605.0 W/m2
11:32 26.4 °C 3 °C 1014.8 hPa Calm     22% 0 mm 687.0 W/m2
11:42 27.2 °C 2.3 °C 1014.8 hPa Calm   14.5 km/h 20% 0 mm 645.0 W/m2
11:47 27.1 °C 2.9 °C 1014.4 hPa Calm     21% 0 mm 617.0 W/m2
11:51 27.1 °C 2.9 °C 1014.4 hPa Calm     21% 0 mm 670.0 W/m2
11:59 27.2 °C 3 °C 1014.4 hPa Calm     21% 0 mm 682.0 W/m2
12:04 27.3 °C 2.4 °C 1014.4 hPa Calm     20% 0 mm 673.0 W/m2
12:07 27.4 °C 2.5 °C 1014.4 hPa Calm     20% 0 mm 670.0 W/m2
12:17 27.7 °C 2.7 °C 1014.1 hPa Calm     20% 0 mm 675.0 W/m2
12:32 28.2 °C 2.4 °C 1013.8 hPa Calm     19% 0 mm 652.0 W/m2
12:47 28.4 °C 2.6 °C 1013.8 hPa Calm     19% 0 mm 642.0 W/m2
12:53 28.6 °C 2.7 °C 1013.4 hPa Calm     19% 0 mm 640.0 W/m2
13:14 28.4 °C 2.6 °C 1013.4 hPa Calm   9.7 km/h 19% 0 mm 633.0 W/m2
13:53 28.6 °C 2 °C 1012.8 hPa Calm   8 km/h 18% 0 mm 552.0 W/m2
14:20 28.7 °C 2 °C 1012.8 hPa Calm   9.7 km/h 18% 0 mm 489.0 W/m2
15:06 29.2 °C 2.4 °C 1012.4 hPa Calm     18% 0 mm 376.0 W/m2
15:16 29.3 °C 1.7 °C 1012.4 hPa Calm     17% 0 mm 327.0 W/m2
15:31 29.7 °C 2 °C 1012.4 hPa WSW 4.7 km/h 9.7 km/h 17% 0 mm 292.0 W/m2
15:42 29.4 °C 2.6 °C 1012.4 hPa Calm   3.2 km/h 18% 0 mm 213.0 W/m2
15:56 28.9 °C 2.2 °C 1012.4 hPa West 3.2 km/h 8 km/h 18% 0 mm 160.0 W/m2
16:05 29.1 °C 2.4 °C 1012.4 hPa Calm     18% 0 mm 155.0 W/m2
16:14 28.9 °C 2.2 °C 1012.4 hPa Calm   9.7 km/h 18% 0 mm 105.0 W/m2
16:23 28.8 °C 2.1 °C 1012.4 hPa West 1.4 km/h 8 km/h 18% 0 mm 79.0 W/m2
16:29 28.8 °C 2.1 °C 1012.4 hPa Calm     18% 0 mm 70.0 W/m2
16:34 28.7 °C 2 °C 1012.4 hPa Calm   6.4 km/h 18% 0 mm 72.0 W/m2
16:44 28.5 °C 2.6 °C 1012.4 hPa West 6.4 km/h 8 km/h 19% 0 mm 40.0 W/m2
16:56 28.2 °C 2.4 °C 1012.4 hPa West 3.2 km/h 8 km/h 19% 0 mm 21.0 W/m2
17:05 27.9 °C 2.1 °C 1012.4 hPa Calm     19% 0 mm 11.0 W/m2
17:10 27.8 °C 2.8 °C 1012.4 hPa Calm     20% 0 mm 5.0 W/m2
17:44 27.1 °C 2.9 °C 1012.8 hPa Calm     21% 0 mm 0.0 W/m2
17:55 26.4 °C 2.3 °C 1012.8 hPa Calm     21% 0 mm 0.0 W/m2
18:26 24.6 °C 2.1 °C 1012.8 hPa Calm     23% 0 mm 0.0 W/m2
18:43 24.1 °C 2.3 °C 1012.8 hPa Calm     24% 0 mm 0.0 W/m2
18:58 23.6 °C 2.4 °C 1013.1 hPa Calm     25% 0 mm 0.0 W/m2
19:13 22.9 °C 1.8 °C 1013.4 hPa Calm     25% 0 mm 0.0 W/m2
20:04 22.7 °C 3.2 °C 1013.8 hPa West 11.1 km/h 12.9 km/h 28% 0 mm 0.0 W/m2
20:20 22 °C 3.1 °C 1013.8 hPa West 7.9 km/h 8 km/h 29% 0 mm 0.0 W/m2
20:37 21.2 °C 2.9 °C 1013.8 hPa West 6.4 km/h 8 km/h 30% 0 mm 0.0 W/m2
20:53 21.1 °C 2.8 °C 1014.1 hPa West 6.4 km/h 8 km/h 30% 0 mm 0.0 W/m2
21:13 21.3 °C 3 °C 1014.1 hPa West 11.1 km/h 16.1 km/h 30% 0 mm 0.0 W/m2
21:45 21.7 °C 3.4 °C 1014.4 hPa West 16.3 km/h 16.3 km/h 30% 0 mm 0.0 W/m2
21:53 21.8 °C 3.5 °C 1014.1 hPa West 9.7 km/h 16.1 km/h 30% 0 mm 0.0 W/m2
22:07 21.8 °C 3.5 °C 1014.4 hPa West 7.9 km/h 17.7 km/h 30% 0 mm 0.0 W/m2
Canyon Roadhouse, Fishriver Canyon, Namibia
Compliments of Weather Underground - 1.75 mb